Time;durP1;ratioP1;P1;durP2;ratioP2;P2;SDS_P1;SDS_P2;PMS_P1;PMS_P2;Temp;Humidity;BMP_temperature;BMP_pressure;BME280_temperature;BME280_humidity;BME280_pressure;Samples;Min_cycle;Max_cycle;Signal;HPM_P1;HPM_P2
2024/01/17 00:00:45;;;;;;;13.55;6.93;;;;;;;-1.51;94.78;100168.00;5032749;28;20440;-82
2024/01/17 00:03:11;;;;;;;13.30;6.63;;;;;;;-1.52;94.71;100158.44;5032744;28;20401;-82
2024/01/17 00:05:36;;;;;;;11.50;6.32;;;;;;;-1.53;94.84;100159.28;5032370;28;20061;-82
2024/01/17 00:08:01;;;;;;;14.98;6.80;;;;;;;-1.68;94.57;100127.44;5015047;28;20040;-82
2024/01/17 00:10:27;;;;;;;12.75;6.03;;;;;;;-1.64;94.98;100148.38;5032079;28;20044;-85
2024/01/17 00:12:52;;;;;;;17.08;6.47;;;;;;;-1.62;94.41;100140.69;5033093;28;20433;-87
2024/01/17 00:15:18;;;;;;;11.57;6.75;;;;;;;-1.69;94.98;100125.69;5032737;28;20509;-88
2024/01/17 00:17:44;;;;;;;11.30;6.55;;;;;;;-1.74;95.26;100127.16;5001298;28;20462;-84
2024/01/17 00:20:09;;;;;;;16.95;6.72;;;;;;;-1.70;94.56;100126.50;5032364;28;20049;-85
2024/01/17 00:22:35;;;;;;;10.68;5.82;;;;;;;-1.72;94.95;100125.53;5032666;28;20444;-85
2024/01/17 00:25:00;;;;;;;10.85;6.07;;;;;;;-1.70;94.95;100123.91;5032318;28;20425;-85
2024/01/17 00:27:26;;;;;;;13.18;6.53;;;;;;;-1.74;94.77;100125.47;5032236;28;20025;-83
2024/01/17 00:29:57;;;;;;;11.85;6.78;;;;;;;-1.75;94.87;100118.50;5032589;28;20446;-83
2024/01/17 00:32:25;;;;;;;13.02;7.10;;;;;;;-1.78;94.70;100101.09;5032880;28;20056;-83
2024/01/17 00:34:51;;;;;;;11.38;6.70;;;;;;;-1.80;94.86;100099.25;5032657;28;20086;-83
2024/01/17 00:37:17;;;;;;;14.88;6.88;;;;;;;-1.84;95.14;100098.25;5014824;28;20033;-83
2024/01/17 00:39:42;;;;;;;12.65;6.43;;;;;;;-1.92;95.47;100085.75;5033512;28;20073;-83
2024/01/17 00:42:08;;;;;;;13.15;6.40;;;;;;;-1.88;95.04;100085.06;5035906;28;20036;-84
2024/01/17 00:44:33;;;;;;;13.85;6.80;;;;;;;-1.86;94.88;100086.91;5036002;28;20069;-83
2024/01/17 00:46:59;;;;;;;11.40;6.78;;;;;;;-1.87;94.62;100081.66;5036028;28;20029;-84
2024/01/17 00:49:25;;;;;;;15.02;6.75;;;;;;;-1.94;95.20;100067.53;5036428;28;20069;-83
2024/01/17 00:51:50;;;;;;;12.35;6.50;;;;;;;-2.01;95.09;100060.31;5018240;28;20061;-83
2024/01/17 00:54:16;;;;;;;15.25;6.53;;;;;;;-1.99;95.50;100062.94;5035949;28;20057;-83
2024/01/17 00:56:41;;;;;;;13.15;6.70;;;;;;;-2.03;95.63;100052.44;5018225;28;20048;-83
2024/01/17 00:59:06;;;;;;;13.45;6.45;;;;;;;-2.06;95.79;100041.94;5035538;28;20112;-83
2024/01/17 01:01:32;;;;;;;12.25;6.30;;;;;;;-1.98;95.77;100044.00;5035543;28;20029;-83
2024/01/17 01:03:58;;;;;;;15.82;7.05;;;;;;;-2.02;95.47;100037.78;5018430;28;20116;-84
2024/01/17 01:06:23;;;;;;;13.98;7.05;;;;;;;-2.03;95.17;100038.63;5018045;28;20037;-83
2024/01/17 01:08:49;;;;;;;12.10;6.40;;;;;;;-2.03;95.00;100038.63;5036059;28;20458;-83
2024/01/17 01:11:14;;;;;;;11.05;6.55;;;;;;;-2.05;95.65;100035.97;5035723;28;20034;-84
2024/01/17 01:13:40;;;;;;;12.10;7.07;;;;;;;-2.05;95.39;100041.16;5035973;28;20033;-83
2024/01/17 01:16:05;;;;;;;12.95;6.55;;;;;;;-2.09;95.87;100036.63;5018249;28;20440;-83
2024/01/17 01:18:31;;;;;;;11.38;5.80;;;;;;;-2.07;95.30;100034.09;5036029;28;20098;-83
2024/01/17 01:20:57;;;;;;;15.30;7.00;;;;;;;-2.23;95.63;100011.78;5035752;28;20429;-83
2024/01/17 01:23:24;;;;;;;13.55;6.57;;;;;;;-2.13;95.37;100028.66;5018126;28;20109;-83
2024/01/17 01:25:50;;;;;;;13.50;5.78;;;;;;;-2.10;95.42;100028.78;5035440;28;20091;-84
2024/01/17 01:28:16;;;;;;;12.55;6.28;;;;;;;-2.02;95.20;100022.25;5018214;28;20034;-83
2024/01/17 01:30:41;;;;;;;12.18;5.78;;;;;;;-1.98;95.23;100018.13;5035285;28;20048;-84
2024/01/17 01:33:07;;;;;;;17.20;6.30;;;;;;;-1.89;94.94;100024.63;5017685;28;20065;-84
2024/01/17 01:35:32;;;;;;;14.05;6.32;;;;;;;-1.92;94.88;100008.06;5035660;28;20040;-84
2024/01/17 01:37:58;;;;;;;11.90;6.10;;;;;;;-1.91;94.31;100023.66;5035237;28;20036;-84
2024/01/17 01:40:23;;;;;;;11.90;6.20;;;;;;;-1.89;94.36;100028.91;5017718;28;20461;-84
2024/01/17 01:42:49;;;;;;;15.20;7.38;;;;;;;-1.90;94.33;100022.84;5017722;28;20116;-84
2024/01/17 01:45:14;;;;;;;14.68;6.28;;;;;;;-1.94;94.21;100020.94;5017997;28;20041;-83
2024/01/17 01:47:39;;;;;;;11.77;6.72;;;;;;;-1.89;94.39;100013.38;5035220;28;20034;-84
2024/01/17 01:50:06;;;;;;;14.05;7.20;;;;;;;-1.91;94.66;100013.31;5035288;28;20032;-84
2024/01/17 01:52:35;;;;;;;11.00;6.82;;;;;;;-2.05;94.54;100016.97;5016789;28;20033;-84
2024/01/17 01:55:02;;;;;;;18.48;7.03;;;;;;;-2.05;94.84;100023.03;5001322;28;20029;-84
2024/01/17 01:57:30;;;;;;;16.05;6.82;;;;;;;-2.02;95.21;100017.09;5001002;28;20053;-84
2024/01/17 01:59:56;;;;;;;13.95;6.22;;;;;;;-2.03;95.29;100005.84;5017112;28;20044;-84
2024/01/17 02:02:23;;;;;;;13.23;6.80;;;;;;;-2.06;95.38;100008.28;5017354;28;20043;-83
2024/01/17 02:04:52;;;;;;;11.50;6.50;;;;;;;-2.07;95.82;99992.69;5034192;28;20083;-84
2024/01/17 02:07:18;;;;;;;12.20;6.38;;;;;;;-1.93;95.20;99996.81;5034514;28;20064;-84
2024/01/17 02:09:44;;;;;;;14.75;7.05;;;;;;;-1.85;94.69;99998.06;5034492;28;20037;-84
2024/01/17 02:12:10;;;;;;;15.30;7.20;;;;;;;-1.82;94.54;99993.03;5016924;28;20044;-84
2024/01/17 02:14:39;;;;;;;13.65;6.32;;;;;;;-1.72;94.02;99981.38;5034363;28;20108;-84
2024/01/17 02:17:05;;;;;;;11.45;6.53;;;;;;;-1.73;93.50;99973.53;5034391;28;20030;-84
2024/01/17 02:19:30;;;;;;;13.90;6.72;;;;;;;-1.84;93.39;99979.13;5034322;28;20040;-83
2024/01/17 02:21:56;;;;;;;17.02;7.25;;;;;;;-1.96;93.77;99970.81;5034218;28;20053;-83
2024/01/17 02:24:23;;;;;;;12.65;6.82;;;;;;;-2.02;94.05;99971.38;5034359;28;20026;-83
2024/01/17 02:26:48;;;;;;;12.55;7.10;;;;;;;-2.11;93.91;99970.94;5033981;28;20120;-83
2024/01/17 02:29:14;;;;;;;12.85;7.05;;;;;;;-2.17;94.92;99967.22;5034011;28;20116;-83
2024/01/17 02:31:40;;;;;;;13.40;6.80;;;;;;;-2.26;94.84;99949.56;5016160;28;20474;-84
2024/01/17 02:34:05;;;;;;;12.35;7.03;;;;;;;-2.23;95.17;99947.09;5034069;28;20543;-84
2024/01/17 02:36:31;;;;;;;11.18;6.75;;;;;;;-2.22;95.78;99935.06;5033826;28;20037;-84
2024/01/17 02:38:56;;;;;;;12.15;6.32;;;;;;;-2.23;95.76;99928.09;5033929;28;20037;-84
2024/01/17 02:41:21;;;;;;;20.38;7.35;;;;;;;-2.34;95.44;99917.25;5015800;28;20030;-84
2024/01/17 02:43:47;;;;;;;13.43;6.72;;;;;;;-2.39;95.62;99905.81;5034124;28;20462;-84
2024/01/17 02:46:12;;;;;;;12.95;7.68;;;;;;;-2.38;96.16;99916.22;5015920;28;20124;-84
2024/01/17 02:48:38;;;;;;;13.30;6.72;;;;;;;-2.35;96.36;99916.38;4999617;28;20033;-84
2024/01/17 02:51:03;;;;;;;11.93;7.10;;;;;;;-2.64;95.64;99860.69;5033659;22;20017;-83
2024/01/17 02:53:29;;;;;;;14.63;7.18;;;;;;;-2.65;96.10;99846.00;5014385;28;20792;-83
2024/01/17 02:55:54;;;;;;;13.25;6.57;;;;;;;-2.44;96.45;99876.22;5033192;28;20045;-83
2024/01/17 02:58:20;;;;;;;12.45;6.70;;;;;;;-2.29;96.11;99889.88;4999646;28;20045;-83
2024/01/17 03:00:45;;;;;;;12.45;6.82;;;;;;;-2.18;95.85;99900.75;5015804;28;20057;-83
2024/01/17 03:03:11;;;;;;;11.88;7.05;;;;;;;-2.16;95.83;99889.63;5033730;28;20029;-83
2024/01/17 03:05:37;;;;;;;14.30;6.82;;;;;;;-2.13;96.14;99874.25;5015832;28;20382;-83
2024/01/17 03:08:06;;;;;;;14.38;7.10;;;;;;;-2.03;95.44;99871.25;5033466;28;20052;-83
2024/01/17 03:10:32;;;;;;;10.88;6.38;;;;;;;-2.04;95.13;99843.59;5033451;28;20065;-83
2024/01/17 03:12:58;;;;;;;13.10;6.40;;;;;;;-1.80;95.20;99874.88;5015920;28;20083;-83
2024/01/17 03:15:25;;;;;;;11.73;6.57;;;;;;;-1.77;94.68;99871.53;5015824;28;20033;-83
2024/01/17 03:17:51;;;;;;;16.95;6.13;;;;;;;-1.93;94.12;99828.53;5015779;28;20045;-83
2024/01/17 03:20:17;;;;;;;11.20;6.05;;;;;;;-1.60;94.07;99873.16;5015897;28;20030;-83
2024/01/17 03:22:42;;;;;;;13.45;6.07;;;;;;;-1.52;93.71;99873.50;5015684;28;20029;-83
2024/01/17 03:25:08;;;;;;;14.02;6.75;;;;;;;-1.44;93.51;99869.53;5033071;28;20033;-83
2024/01/17 03:27:35;;;;;;;12.43;6.57;;;;;;;-1.44;93.05;99847.91;5015771;28;20033;-83
2024/01/17 03:30:01;;;;;;;15.85;6.65;;;;;;;-1.48;91.97;99859.84;4999505;28;20089;-83
2024/01/17 03:32:26;;;;;;;10.85;6.07;;;;;;;-1.62;92.44;99842.84;5033349;28;20029;-83
2024/01/17 03:34:55;;;;;;;11.30;6.18;;;;;;;-1.61;93.04;99847.19;5033021;28;20410;-83
2024/01/17 03:37:21;;;;;;;10.27;6.35;;;;;;;-1.67;92.88;99814.16;5033004;28;20056;-83
2024/01/17 03:39:47;;;;;;;12.23;6.25;;;;;;;-1.53;92.22;99825.97;5033283;28;20462;-83
2024/01/17 03:42:18;;;;;;;9.90;6.28;;;;;;;-1.59;92.07;99814.47;4999143;28;20377;-83
2024/01/17 03:44:44;;;;;;;10.57;6.57;;;;;;;-1.65;91.81;99803.84;5033263;28;20096;-83
2024/01/17 03:47:10;;;;;;;13.60;7.05;;;;;;;-1.70;92.09;99800.19;5032968;28;20041;-83
2024/01/17 03:49:36;;;;;;;13.93;7.18;;;;;;;-1.75;92.21;99783.56;5015585;28;20038;-83
2024/01/17 03:52:01;;;;;;;12.60;6.15;;;;;;;-1.68;92.35;99789.06;5019881;28;20478;-82
2024/01/17 03:54:26;;;;;;;9.57;6.30;;;;;;;-1.72;92.46;99769.03;5032077;28;20111;-83
2024/01/17 03:56:52;;;;;;;15.13;6.80;;;;;;;-1.66;92.23;99768.41;5031981;28;20038;-83
2024/01/17 03:59:17;;;;;;;11.98;6.40;;;;;;;-1.60;91.82;99768.66;5015340;28;20033;-83
2024/01/17 04:01:43;;;;;;;13.35;6.45;;;;;;;-1.93;91.98;99704.28;5032845;28;20530;-83
2024/01/17 04:04:09;;;;;;;12.75;6.82;;;;;;;-1.61;91.90;99751.38;5033086;28;20030;-83
2024/01/17 04:06:35;;;;;;;14.35;6.97;;;;;;;-1.48;91.80;99760.53;5032745;28;20096;-82
2024/01/17 04:09:00;;;;;;;10.35;6.28;;;;;;;-1.54;91.59;99740.44;5033321;28;20457;-83
2024/01/17 04:11:26;;;;;;;14.68;6.50;;;;;;;-1.66;91.61;99703.69;5031321;28;20036;-83
2024/01/17 04:13:51;;;;;;;12.98;6.90;;;;;;;-1.41;90.99;99750.47;5031823;28;20033;-83
2024/01/17 04:16:17;;;;;;;14.18;6.50;;;;;;;-1.41;91.00;99742.72;5018861;28;20033;-83
2024/01/17 04:18:43;;;;;;;12.07;6.72;;;;;;;-1.42;90.95;99722.78;5036850;28;20037;-83
2024/01/17 04:21:09;;;;;;;13.80;6.53;;;;;;;-1.48;90.89;99709.59;5035655;28;20108;-83
2024/01/17 04:23:34;;;;;;;11.18;6.65;;;;;;;-1.47;90.70;99708.75;5036548;28;20057;-83
2024/01/17 04:25:59;;;;;;;12.35;6.30;;;;;;;-1.76;91.14;99653.19;5018934;28;20424;-83
2024/01/17 04:28:25;;;;;;;14.65;6.80;;;;;;;-1.48;90.88;99694.06;5035482;28;20040;-83
2024/01/17 04:30:50;;;;;;;10.75;6.07;;;;;;;-1.50;90.81;99695.69;5036338;28;20045;-84
2024/01/17 04:33:16;;;;;;;12.43;6.38;;;;;;;-1.51;91.08;99694.78;5035145;28;20033;-84
2024/01/17 04:35:41;;;;;;;10.57;6.22;;;;;;;-1.67;90.79;99665.63;5018754;28;20462;-84
2024/01/17 04:38:07;;;;;;;12.30;6.40;;;;;;;-1.55;91.55;99673.91;5036236;28;20033;-84
2024/01/17 04:40:32;;;;;;;13.18;6.80;;;;;;;-1.70;90.72;99661.22;5035119;28;20450;-84
2024/01/17 04:42:57;;;;;;;15.25;7.10;;;;;;;-1.67;91.58;99666.53;5036687;28;20029;-84
2024/01/17 04:45:23;;;;;;;9.80;6.30;;;;;;;-1.76;91.90;99627.31;5036335;28;20083;-84
2024/01/17 04:47:48;;;;;;;9.18;6.03;;;;;;;-1.70;91.13;99650.88;5035134;28;20037;-86
2024/01/17 04:50:14;;;;;;;13.52;6.97;;;;;;;-1.98;90.93;99629.84;5034904;28;20037;-84
2024/01/17 04:52:40;;;;;;;17.33;7.28;;;;;;;-2.14;91.56;99652.53;5036114;28;20147;-87
2024/01/17 04:55:07;;;;;;;12.63;7.00;;;;;;;-2.25;92.76;99660.66;5035807;28;20116;-84
2024/01/17 04:57:33;;;;;;;13.52;6.50;;;;;;;-2.27;92.92;99645.03;5018977;28;20140;-84
2024/01/17 04:59:58;;;;;;;15.85;6.97;;;;;;;-2.30;92.81;99639.75;5001865;28;20489;-84
2024/01/17 05:02:24;;;;;;;15.30;6.53;;;;;;;-2.32;93.43;99620.69;5018234;28;20517;-84
2024/01/17 05:04:49;;;;;;;12.05;6.43;;;;;;;-2.40;93.76;99591.94;5035807;28;20116;-83
2024/01/17 05:07:15;;;;;;;13.27;7.00;;;;;;;-2.11;93.40;99628.47;5018244;28;20033;-84
2024/01/17 05:09:43;;;;;;;11.45;6.50;;;;;;;-2.16;93.21;99591.16;5018412;28;20462;-83
2024/01/17 05:12:09;;;;;;;14.45;6.80;;;;;;;-2.00;92.35;99619.44;5017764;28;20037;-83
2024/01/17 05:14:34;;;;;;;12.95;6.88;;;;;;;-2.18;92.40;99593.72;5001675;28;20470;-83
2024/01/17 05:17:01;;;;;;;11.60;7.22;;;;;;;-2.09;93.43;99609.59;5017944;28;20469;-83
2024/01/17 05:19:26;;;;;;;12.45;7.03;;;;;;;-2.16;93.67;99586.88;5017890;28;20045;-83
2024/01/17 05:21:51;;;;;;;13.98;6.93;;;;;;;-2.11;94.00;99580.19;5001507;28;20030;-84
2024/01/17 05:24:17;;;;;;;11.05;6.53;;;;;;;-1.93;93.04;99598.16;5017979;28;20030;-84
2024/01/17 05:26:43;;;;;;;13.45;6.53;;;;;;;-1.88;93.00;99599.25;5016376;28;20045;-84
2024/01/17 05:29:08;;;;;;;11.93;6.70;;;;;;;-1.82;93.51;99602.06;5035523;28;20108;-83
2024/01/17 05:31:33;;;;;;;17.25;7.15;;;;;;;-1.88;93.41;99577.66;5000937;28;20187;-83
2024/01/17 05:33:59;;;;;;;12.57;6.80;;;;;;;-1.94;93.13;99552.38;5017588;28;20029;-83
2024/01/17 05:36:24;;;;;;;15.65;7.22;;;;;;;-1.89;92.98;99547.38;4985015;28;20389;-83
2024/01/17 05:38:50;;;;;;;16.38;7.20;;;;;;;-1.78;93.23;99567.69;5017235;28;20095;-83
2024/01/17 05:41:15;;;;;;;14.50;6.97;;;;;;;-1.95;93.47;99531.63;5017141;28;20044;-84
2024/01/17 05:43:40;;;;;;;11.50;6.80;;;;;;;-1.82;92.35;99541.63;5001189;28;20037;-83
2024/01/17 05:46:06;;;;;;;9.82;6.28;;;;;;;-1.79;92.34;99557.28;5017515;28;20425;-83
2024/01/17 05:48:31;;;;;;;12.00;6.95;;;;;;;-1.82;91.98;99546.81;5001631;28;20044;-84
2024/01/17 05:50:57;;;;;;;15.27;6.70;;;;;;;-1.87;91.77;99550.94;5001079;28;20101;-83
2024/01/17 05:53:22;;;;;;;13.13;7.00;;;;;;;-2.00;92.59;99530.56;5033153;28;20132;-83
2024/01/17 05:55:48;;;;;;;14.02;7.22;;;;;;;-1.94;92.51;99542.03;5034949;28;20125;-83
2024/01/17 05:58:13;;;;;;;10.23;6.47;;;;;;;-1.91;92.55;99531.81;5033749;28;20033;-83
2024/01/17 06:00:40;;;;;;;12.70;7.50;;;;;;;-1.89;92.16;99535.31;5000893;28;20033;-83
2024/01/17 06:03:06;;;;;;;14.93;7.47;;;;;;;-2.10;92.14;99522.44;5033645;28;20397;-85
2024/01/17 06:05:31;;;;;;;17.42;6.78;;;;;;;-2.17;92.53;99525.59;5033098;28;20033;-83
2024/01/17 06:07:56;;;;;;;14.38;6.82;;;;;;;-2.10;93.29;99535.38;5033675;28;20029;-83
2024/01/17 06:10:23;;;;;;;13.90;6.93;;;;;;;-2.14;92.96;99532.59;5033722;28;20084;-82
2024/01/17 06:12:49;;;;;;;13.30;7.70;;;;;;;-2.21;92.39;99520.25;5033250;28;20474;-83
2024/01/17 06:15:17;;;;;;;11.25;6.85;;;;;;;-2.35;93.15;99502.47;5033554;28;20033;-83
2024/01/17 06:17:43;;;;;;;13.68;7.47;;;;;;;-2.42;93.43;99522.84;5034519;28;20096;-83
2024/01/17 06:20:09;;;;;;;12.30;7.20;;;;;;;-2.67;94.46;99500.25;5033113;28;20064;-83
2024/01/17 06:22:35;;;;;;;13.75;6.97;;;;;;;-2.79;94.68;99498.91;5016630;28;20048;-83
2024/01/17 06:25:00;;;;;;;13.45;7.47;;;;;;;-2.76;95.42;99500.75;5033493;28;20037;-83
2024/01/17 06:27:26;;;;;;;12.13;7.40;;;;;;;-2.81;95.53;99503.16;5000412;28;20386;-83
2024/01/17 06:29:51;;;;;;;11.27;6.75;;;;;;;-2.93;95.56;99463.00;5033218;28;20393;-83
2024/01/17 06:32:17;;;;;;;12.32;6.72;;;;;;;-2.80;95.81;99484.25;5000332;28;20068;-83
2024/01/17 06:34:43;;;;;;;11.95;7.07;;;;;;;-2.77;95.64;99483.50;5034255;28;20128;-82
2024/01/17 06:37:09;;;;;;;13.60;7.38;;;;;;;-2.73;96.07;99492.25;5032497;28;20038;-83
2024/01/17 06:39:34;;;;;;;16.33;8.55;;;;;;;-2.75;95.27;99480.97;5016301;28;20060;-83
2024/01/17 06:42:00;;;;;;;13.35;6.88;;;;;;;-2.80;96.51;99473.03;5016274;28;20037;-85
2024/01/17 06:44:27;;;;;;;14.68;7.53;;;;;;;-2.69;96.36;99484.69;5016392;28;20443;-83
2024/01/17 06:46:53;;;;;;;11.25;7.15;;;;;;;-2.82;96.02;99443.66;5032786;28;20044;-83
2024/01/17 06:49:18;;;;;;;13.95;7.18;;;;;;;-2.62;96.28;99470.31;5034072;28;20037;-83
2024/01/17 06:51:44;;;;;;;12.27;6.63;;;;;;;-2.59;95.34;99471.31;4999686;28;20401;-83
2024/01/17 06:54:09;;;;;;;12.23;7.10;;;;;;;-2.75;95.78;99455.09;5016221;28;20507;-83
2024/01/17 06:56:36;;;;;;;14.70;7.72;;;;;;;-2.71;96.42;99472.50;5032886;28;20045;-83
2024/01/17 06:59:02;;;;;;;11.13;7.25;;;;;;;-2.76;96.59;99467.16;5032604;28;20044;-83
2024/01/17 07:01:27;;;;;;;10.77;6.60;;;;;;;-2.84;96.73;99453.91;5033813;28;20029;-83
2024/01/17 07:03:53;;;;;;;13.52;7.00;;;;;;;-2.80;96.83;99457.50;5032322;28;20045;-83
2024/01/17 07:06:18;;;;;;;15.07;8.75;;;;;;;-2.76;96.55;99454.22;5015887;28;20076;-83
2024/01/17 07:08:43;;;;;;;12.93;7.45;;;;;;;-2.69;96.37;99455.38;5016152;28;20029;-83
2024/01/17 07:11:10;;;;;;;11.43;6.80;;;;;;;-2.65;97.04;99444.34;5032247;28;20079;-83
2024/01/17 07:13:37;;;;;;;11.25;6.63;;;;;;;-2.68;96.53;99415.78;5033338;28;20420;-83
2024/01/17 07:16:03;;;;;;;17.15;9.40;;;;;;;-2.53;96.11;99435.38;5032512;28;20087;-83
2024/01/17 07:18:29;;;;;;;12.57;6.80;;;;;;;-2.47;96.19;99413.16;5033553;28;20037;-83
2024/01/17 07:20:54;;;;;;;14.80;7.00;;;;;;;-2.41;96.33;99406.50;5033756;28;20136;-83
2024/01/17 07:23:19;;;;;;;14.98;6.93;;;;;;;-2.36;95.90;99402.38;5015865;28;20037;-83
2024/01/17 07:25:45;;;;;;;11.80;6.78;;;;;;;-2.37;95.44;99394.56;5032242;28;20057;-83
2024/01/17 07:28:10;;;;;;;14.48;6.63;;;;;;;-2.21;94.90;99406.41;5015514;28;20037;-83
2024/01/17 07:30:36;;;;;;;15.40;6.93;;;;;;;-2.21;95.18;99402.09;5032293;28;20076;-83
2024/01/17 07:33:01;;;;;;;13.13;6.95;;;;;;;-2.40;94.78;99363.41;5032172;28;20036;-83
2024/01/17 07:35:27;;;;;;;16.02;7.22;;;;;;;-2.67;93.85;99306.38;5015602;28;20033;-83
2024/01/17 07:37:52;;;;;;;15.23;9.45;;;;;;;-2.27;95.10;99370.81;5032117;28;20501;-83
2024/01/17 07:40:18;;;;;;;13.02;7.25;;;;;;;-2.36;95.07;99355.81;5031888;28;20107;-83
2024/01/17 07:42:43;;;;;;;13.18;7.07;;;;;;;-2.17;95.42;99364.31;5015512;28;20132;-82
2024/01/17 07:45:10;;;;;;;21.17;12.00;;;;;;;-2.09;96.22;99366.34;5032153;28;20104;-83
2024/01/17 07:47:39;;;;;;;11.88;6.60;;;;;;;-2.07;95.64;99363.81;5031752;28;20029;-83
2024/01/17 07:50:09;;;;;;;18.13;9.75;;;;;;;-2.28;96.07;99307.84;5034480;28;20480;-83
2024/01/17 07:52:35;;;;;;;18.60;8.52;;;;;;;-1.97;95.31;99352.06;5036821;28;20100;-83
2024/01/17 07:55:00;;;;;;;15.50;6.70;;;;;;;-1.99;94.25;99339.09;5019357;28;20041;-82
2024/01/17 07:57:26;;;;;;;11.88;6.97;;;;;;;-1.97;93.46;99340.03;5003511;28;20497;-83
2024/01/17 07:59:51;;;;;;;15.23;6.75;;;;;;;-2.07;93.70;99319.81;5018969;28;20113;-82
2024/01/17 08:02:17;;;;;;;18.58;8.32;;;;;;;-1.95;93.52;99322.84;5035331;28;20470;-83
2024/01/17 08:04:43;;;;;;;14.43;7.28;;;;;;;-1.98;93.45;99316.66;5035475;28;20034;-82
2024/01/17 08:07:08;;;;;;;12.15;6.82;;;;;;;-2.05;92.68;99289.72;5036578;28;20037;-83
2024/01/17 08:09:34;;;;;;;12.02;6.50;;;;;;;-1.89;93.41;99314.41;5036412;28;20085;-83
2024/01/17 08:11:59;;;;;;;18.23;7.47;;;;;;;-1.93;92.77;99304.78;5035858;28;20501;-82
2024/01/17 08:14:25;;;;;;;13.57;7.82;;;;;;;-1.82;93.40;99314.69;5036614;28;20391;-83
2024/01/17 08:16:53;;;;;;;14.35;7.60;;;;;;;-1.83;94.28;99304.28;5036339;28;20041;-83
2024/01/17 08:19:19;;;;;;;13.48;6.70;;;;;;;-1.75;92.81;99314.91;5035197;28;20042;-83
2024/01/17 08:21:46;;;;;;;14.23;7.20;;;;;;;-1.80;92.55;99314.72;5035116;28;20041;-86
2024/01/17 08:24:12;;;;;;;14.38;7.20;;;;;;;-1.93;92.77;99292.72;5036151;28;20091;-85
2024/01/17 08:26:41;;;;;;;11.35;6.68;;;;;;;-2.25;93.16;99232.06;5035051;28;20113;-86
2024/01/17 08:29:06;;;;;;;11.80;6.63;;;;;;;-1.82;92.97;99293.97;5036382;28;20030;-86
2024/01/17 08:31:32;;;;;;;17.02;7.22;;;;;;;-1.74;92.83;99307.19;5018215;28;20045;-86
2024/01/17 08:33:58;;;;;;;12.82;7.22;;;;;;;-1.72;93.50;99297.75;5036446;28;20127;-85
2024/01/17 08:36:27;;;;;;;15.40;7.07;;;;;;;-1.69;93.33;99278.88;5039519;28;20422;-84
2024/01/17 08:38:53;;;;;;;13.93;7.28;;;;;;;-1.58;92.64;99290.47;5034801;28;20033;-83
2024/01/17 08:41:19;;;;;;;12.85;7.35;;;;;;;-1.72;91.97;99264.09;5035817;28;20034;-83
2024/01/17 08:43:45;;;;;;;16.40;8.30;;;;;;;-1.73;92.22;99254.56;5037014;28;20481;-86
2024/01/17 08:46:11;;;;;;;15.63;8.52;;;;;;;-1.63;91.97;99260.94;5018129;28;20053;-88
2024/01/17 08:48:38;;;;;;;16.42;7.97;;;;;;;-1.56;92.12;99261.19;5018140;28;20036;-84
2024/01/17 08:51:03;;;;;;;15.90;7.78;;;;;;;-1.54;91.80;99259.56;5034674;28;20370;-85
2024/01/17 08:53:31;;;;;;;15.30;8.38;;;;;;;-1.38;91.53;99268.69;5004920;28;20091;-85
2024/01/17 08:55:57;;;;;;;13.30;7.82;;;;;;;-1.43;91.08;99249.53;5037700;28;20036;-84
2024/01/17 08:58:22;;;;;;;14.77;8.07;;;;;;;-1.37;91.39;99238.47;5037850;28;20044;-84
2024/01/17 09:00:48;;;;;;;16.23;8.05;;;;;;;-1.32;90.98;99234.34;5043556;28;20041;-85
2024/01/17 09:03:13;;;;;;;15.80;7.93;;;;;;;-1.29;90.40;99232.69;5040338;28;20056;-87
2024/01/17 09:05:39;;;;;;;18.15;8.25;;;;;;;-1.50;91.28;99193.16;5038482;28;20036;-83
2024/01/17 09:08:05;;;;;;;15.60;7.95;;;;;;;-1.34;90.85;99216.13;5055486;28;20064;-83
2024/01/17 09:10:30;;;;;;;18.38;8.48;;;;;;;-1.42;91.05;99208.97;5055500;28;20114;-84
2024/01/17 09:12:56;;;;;;;22.40;8.70;;;;;;;-1.27;90.29;99225.00;5054998;28;20037;-85
2024/01/17 09:15:21;;;;;;;18.50;8.60;;;;;;;-1.33;90.20;99193.69;5037401;28;20086;-84
2024/01/17 09:17:46;;;;;;;14.45;8.40;;;;;;;-1.15;89.63;99216.75;5004632;28;20031;-85
2024/01/17 09:20:14;;;;;;;16.65;8.98;;;;;;;-1.24;90.40;99199.19;5037471;28;20040;-86
2024/01/17 09:22:41;;;;;;;15.18;8.18;;;;;;;-1.05;90.82;99216.19;5021376;28;20025;-84
2024/01/17 09:25:08;;;;;;;14.80;8.27;;;;;;;-0.99;90.55;99224.13;5054799;28;20032;-83
2024/01/17 09:27:34;;;;;;;14.60;8.60;;;;;;;-0.95;90.59;99219.91;5020761;28;20033;-84
2024/01/17 09:29:59;;;;;;;14.10;8.43;;;;;;;-0.88;89.93;99217.56;5036971;28;20028;-85
2024/01/17 09:32:24;;;;;;;16.30;8.82;;;;;;;-0.84;89.50;99209.03;5020529;28;20033;-84
2024/01/17 09:34:50;;;;;;;15.43;8.55;;;;;;;-0.97;89.11;99183.59;5036876;28;20037;-85
2024/01/17 09:37:16;;;;;;;16.55;9.07;;;;;;;-0.77;89.10;99207.53;5020539;28;20469;-84
2024/01/17 09:39:41;;;;;;;16.83;8.93;;;;;;;-0.80;89.23;99200.53;5037025;28;20122;-84
2024/01/17 09:42:07;;;;;;;16.70;8.73;;;;;;;-0.72;89.42;99205.94;5036836;28;20041;-84
2024/01/17 09:44:35;;;;;;;18.67;9.27;;;;;;;-0.66;89.53;99205.22;5054794;28;20040;-84
2024/01/17 09:47:01;;;;;;;13.40;8.40;;;;;;;-0.61;89.45;99203.63;5036662;28;20389;-85
2024/01/17 09:49:31;;;;;;;15.48;8.55;;;;;;;-0.71;89.02;99171.38;5036816;28;20040;-84
2024/01/17 09:51:56;;;;;;;13.82;8.45;;;;;;;-0.60;88.98;99184.63;5003726;28;20049;-84
2024/01/17 09:54:25;;;;;;;15.02;8.57;;;;;;;-0.59;88.38;99195.09;5054087;28;20039;-85
2024/01/17 09:56:53;;;;;;;15.32;8.20;;;;;;;-0.72;88.77;99174.81;5054590;28;20040;-84
2024/01/17 09:59:27;;;;;;;19.65;9.57;;;;;;;-0.54;88.85;99203.00;5036990;28;20036;-84
2024/01/17 10:01:53;;;;;;;18.67;10.52;;;;;;;-0.51;88.25;99192.72;5054644;28;20036;-85
2024/01/17 10:04:20;;;;;;;17.75;9.45;;;;;;;-0.53;87.52;99186.56;5036760;28;20033;-84
2024/01/17 10:06:48;;;;;;;15.82;9.48;;;;;;;-0.59;87.66;99183.81;5036424;28;20033;-84
2024/01/17 10:09:14;;;;;;;18.17;8.95;;;;;;;-0.66;87.97;99155.94;5036301;28;20033;-84
2024/01/17 10:11:40;;;;;;;15.32;10.02;;;;;;;-0.58;87.89;99157.91;5036209;28;20474;-84
2024/01/17 10:14:08;;;;;;;20.85;10.02;;;;;;;-0.47;87.60;99162.50;5053771;28;20439;-84
2024/01/17 10:16:34;;;;;;;14.10;9.10;;;;;;;-0.55;87.54;99141.56;5036400;28;20044;-84
2024/01/17 10:19:03;;;;;;;19.90;10.63;;;;;;;-0.41;88.13;99158.38;5054325;28;20036;-84
2024/01/17 10:21:32;;;;;;;26.10;10.05;;;;;;;-0.35;87.62;99181.00;5036184;28;20044;-84
2024/01/17 10:23:58;;;;;;;21.02;11.52;;;;;;;-0.31;87.54;99169.88;5053649;28;20108;-84
2024/01/17 10:26:26;;;;;;;16.35;9.15;;;;;;;-0.32;87.74;99153.44;5019462;28;20116;-84
2024/01/17 10:28:52;;;;;;;13.52;8.73;;;;;;;-0.61;86.52;99099.88;5053860;28;20492;-84
2024/01/17 10:31:21;;;;;;;14.10;8.23;;;;;;;-0.20;86.68;99150.28;5019022;28;20029;-84
2024/01/17 10:33:51;;;;;;;17.05;8.50;;;;;;;-0.19;86.24;99146.84;5035557;28;20068;-84
2024/01/17 10:36:16;;;;;;;17.83;8.35;;;;;;;-0.27;86.52;99128.47;5019378;28;20127;-84
2024/01/17 10:38:42;;;;;;;16.70;8.75;;;;;;;-0.16;87.26;99144.34;5035928;28;20132;-83
2024/01/17 10:41:08;;;;;;;14.98;8.63;;;;;;;-0.08;86.69;99139.34;5018826;28;20044;-83
2024/01/17 10:43:51;;;;;;;14.93;8.07;;;;;;;-0.03;87.15;99141.22;5035581;28;20043;-83
2024/01/17 10:46:16;;;;;;;17.73;8.00;;;;;;;-0.02;86.66;99123.91;5035472;28;20021;-83
2024/01/17 10:48:44;;;;;;;16.52;8.00;;;;;;;0.05;86.66;99131.03;5035093;28;20086;-83
2024/01/17 10:51:18;;;;;;;14.90;7.60;;;;;;;0.02;85.89;99117.97;5035988;28;20040;-83
2024/01/17 10:53:46;;;;;;;14.45;7.47;;;;;;;0.08;85.79;99125.91;5035329;28;20032;-83
2024/01/17 10:56:13;;;;;;;14.35;7.28;;;;;;;0.05;84.72;99117.19;5052982;28;20542;-84
2024/01/17 10:58:39;;;;;;;13.38;7.28;;;;;;;-0.20;85.11;99079.34;5053193;28;20029;-83
2024/01/17 11:01:11;;;;;;;15.85;7.38;;;;;;;-0.03;85.59;99091.03;5035102;28;20037;-83
2024/01/17 11:03:39;;;;;;;15.70;7.63;;;;;;;0.05;85.28;99094.69;5053332;28;20462;-83
2024/01/17 11:06:06;;;;;;;13.05;7.03;;;;;;;-0.04;84.82;99079.75;5052819;28;20501;-83
2024/01/17 11:08:32;;;;;;;13.52;6.75;;;;;;;-0.02;85.63;99082.38;5035108;28;20036;-83
2024/01/17 11:10:58;;;;;;;16.92;7.20;;;;;;;-0.04;85.01;99071.09;5018592;28;20041;-83
2024/01/17 11:13:25;;;;;;;13.20;6.82;;;;;;;-0.08;85.31;99080.53;5053004;28;20035;-83
2024/01/17 11:15:52;;;;;;;17.58;7.70;;;;;;;-0.11;86.00;99084.75;5018608;28;20140;-83
2024/01/17 11:18:19;;;;;;;15.27;7.18;;;;;;;-0.23;85.82;99069.75;5052947;28;20029;-83